Flight Track Log - Related Links

Times and Time Zones

All times are in EDT time to prevent confusion due to time zone crossing. See the N249JB flight status page for this flight to view local times or setup timezone preferences in your user account.

Time Position Orientation Groundspeed Altitude Reporting Facility
EDT Latitude Longitude Course Direction KTS MPH feet Rate Location/Type
Tue 02:31:15 PM 40.6523 -73.8010 212° Southwest  Level FlightAware Approximate
Tue 02:32:15 PM 40.7126 -73.8772 150° Southeast  Level FlightAware Approximate
Tue 02:32:51 PM 40.6333 -73.8167 237° Southwest 161 185 1,700  Level New York TRACON
Tue 02:33:52 PM 40.6000 -73.8833 143° Southeast 228 262 3,300 1,934 Climbing New York TRACON
Tue 02:34:52 PM 40.5500 -73.8333 45° Northeast 304 350 5,600 2,300 Climbing New York TRACON
Tue 02:35:52 PM 40.6000 -73.7667 37° Northeast 278 320 7,900 2,450 Climbing New York TRACON
Tue 02:36:52 PM 40.6667 -73.7000 31° Northeast 288 331 10,500 1,600 Climbing New York TRACON
Tue 02:37:52 PM 40.7500 -73.6333 31° Northeast 351 404 11,100 450 Climbing New York TRACON
Tue 02:38:52 PM 40.8333 -73.5667 336° Northwest 356 410 11,400 1,600 Climbing New York TRACON
Tue 02:39:52 PM 40.9167 -73.6167 303° West 337 388 14,300 2,036 Climbing New York TRACON
Tue 02:41:40 PM 41.0003 -73.7844 292° West 354 407 17,100 1,000 Climbing New York Center
Tue 02:42:40 PM 41.0386 -73.9128 292° West 342 394 17,100  Level New York Center
Tue 02:43:41 PM 41.0731 -74.0272 290° West 342 394 17,100  Level New York Center
Tue 02:44:41 PM 41.1050 -74.1469 292° West 342 394 17,100 1,150 Level New York Center
Tue 02:45:41 PM 41.1411 -74.2672 291° West 342 394 19,400 2,370 Climbing New York Center
Tue 02:46:40 PM 41.1750 -74.3847 290° West 348 400 21,800 1,300 Climbing New York Center
Tue 02:47:41 PM 41.2086 -74.5081 296° West 353 406 22,000 99 Climbing New York Center
Tue 02:48:41 PM 41.2528 -74.6264 306° West 353 406 22,000  Level New York Center
Tue 02:49:42 PM 41.3117 -74.7347 308° West 353 406 22,000  Level New York Center
Tue 02:50:42 PM 41.3728 -74.8406 307° West 365 420 22,000  Level New York Center
Tue 02:51:40 PM 41.4333 -74.9494 306° West 365 420 22,000  Level New York Center
Tue 02:52:42 PM 41.4919 -75.0583 306° West 365 420 22,000  Level New York Center
Tue 02:53:39 PM 41.5506 -75.1644 306° West 365 420 22,000  Level New York Center
Tue 02:55:41 PM 41.6694 -75.3806 307° West 365 420 22,000  Level New York Center
Tue 02:56:40 PM 41.7297 -75.4875 304° West 365 420 22,000  Level New York Center
Tue 02:57:41 PM 41.7858 -75.5972 306° West 365 420 22,000  Level New York Center
Tue 02:58:39 PM 41.8458 -75.7075 305° West 365 420 22,000  Level New York Center
Tue 02:59:39 PM 41.9036 -75.8175 306° West 365 420 22,000  Level New York Center
Tue 03:00:39 PM 41.9614 -75.9253 306° West 365 420 22,000  Level New York Center
Tue 03:02:36 PM 42.0694 -76.1267 305° West 379 436 22,000  Level Cleveland Center
Tue 03:03:36 PM 42.1306 -76.2456 306° West 364 419 22,000  Level Cleveland Center
Tue 03:04:36 PM 42.1908 -76.3594 307° West 364 419 22,000  Level Cleveland Center
Tue 03:05:36 PM 42.2533 -76.4703 305° West 371 427 22,000  Level Cleveland Center
Tue 03:06:36 PM 42.3139 -76.5869 306° West 371 427 22,000 -450 Level Cleveland Center
Tue 03:07:36 PM 42.3717 -76.6958 304° West 365 420 21,100 -1,400 Descending Cleveland Center
Tue 03:08:36 PM 42.4256 -76.8053 305° West 365 420 19,200 -1,902 Descending Cleveland Center
Tue 03:09:39 PM 42.4856 -76.9197 304° West 351 404 17,200 -1,871 Descending Cleveland Center
Tue 03:10:09 PM 42.5100 -76.9692 309° West 346 398 16,300 -2,242 Descending Cleveland Center
Tue 03:11:10 PM 42.5714 -77.0728 322° Northwest 328 377 13,800 -2,430 Descending Cleveland Center
Tue 03:12:10 PM 42.6403 -77.1453 321° Northwest 316 364 11,400 -1,388 Descending Cleveland Center
Tue 03:13:11 PM 42.7094 -77.2206 319° Northwest 319 367 11,000 -198 Descending Cleveland Center
Tue 03:14:11 PM 42.7761 -77.2989 322° Northwest 320 368 11,000 -236 Level Cleveland Center
Tue 03:15:18 PM 42.8514 -77.3800 321° Northwest 313 360 10,500 -844 Descending Cleveland Center
Tue 03:16:19 PM 42.9117 -77.4478 328° Northwest 270 311 9,200 -1,391 Descending Cleveland Center
Tue 03:17:36 PM 42.9842 -77.5094 22° Northeast 266 306 7,300 -1,587 Descending Cleveland Center
Tue 03:18:20 PM 43.0458 -77.4753 22° Northeast 273 314 6,000 -1,673 Descending Cleveland Center
Tue 03:19:20 PM 43.1136 -77.4378 North 273 314 4,400 -992 Descending Cleveland Center
Tue 03:20:21 PM 43.1864 -77.4283 356° North 263 303 4,000 -197 Descending Cleveland Center
Tue 03:21:22 PM 43.2594 -77.4358 297° West 253 291 4,000 -50 Level Cleveland Center
Tue 03:22:22 PM 43.2819 -77.4975 236° Southwest 193 222 3,900 -595 Descending Cleveland Center
Tue 03:23:23 PM 43.2542 -77.5531 219° Southwest 171 197 2,800 -689 Descending Cleveland Center
Tue 03:24:24 PM 43.2197 -77.5919 215° Southwest 169 194 2,500 -356 Descending Cleveland Center
Tue 03:25:21 PM 43.1892 -77.6217 215° Southwest 139 160 2,100 -421 Descending Cleveland Center

Login

Don't have an account? Register now (free) for customized features, flight alerts, and more!